sensor_id;sensor_type;location;lat;lon;timestamp;P1;P2;P0
57798;PMS7003;43626;53.866;30.298;2022-11-04T00:04:18;54.2;42;26.6
57798;PMS7003;43626;53.866;30.298;2022-11-04T00:09:04;58.2;44.4;27.4
57798;PMS7003;43626;53.866;30.298;2022-11-04T00:14:11;59.6;46;28.6
57798;PMS7003;43626;53.866;30.298;2022-11-04T00:19:27;64.8;49.8;30.6
57798;PMS7003;43626;53.866;30.298;2022-11-04T00:24:04;75.4;57.8;35.4
57798;PMS7003;43626;53.866;30.298;2022-11-04T00:29:39;80;61;36.8
57798;PMS7003;43626;53.866;30.298;2022-11-04T00:34:03;74.8;55;33.6
57798;PMS7003;43626;53.866;30.298;2022-11-04T00:39:19;66;50.4;31.2
57798;PMS7003;43626;53.866;30.298;2022-11-04T00:44:23;60.8;47.2;29.2
57798;PMS7003;43626;53.866;30.298;2022-11-04T00:49:11;58.8;45.4;26.4
57798;PMS7003;43626;53.866;30.298;2022-11-04T00:54:39;48.8;39.3;25.5
57798;PMS7003;43626;53.866;30.298;2022-11-04T00:59:11;47.2;37.2;23.6
57798;PMS7003;43626;53.866;30.298;2022-11-04T01:04:15;43.2;35.6;23.4
57798;PMS7003;43626;53.866;30.298;2022-11-04T01:09:12;50.8;40.2;24.8
57798;PMS7003;43626;53.866;30.298;2022-11-04T01:14:23;62;47;28
57798;PMS7003;43626;53.866;30.298;2022-11-04T01:19:17;60.2;44.6;28.4
57798;PMS7003;43626;53.866;30.298;2022-11-04T01:23:58;64.4;47.4;29.2
57798;PMS7003;43626;53.866;30.298;2022-11-04T01:29:07;58.4;45.4;27
57798;PMS7003;43626;53.866;30.298;2022-11-04T01:34:31;61;47.2;29.6
57798;PMS7003;43626;53.866;30.298;2022-11-04T01:39:05;56.4;43.2;26.2
57798;PMS7003;43626;53.866;30.298;2022-11-04T01:44:47;49.6;39.2;24.2
57798;PMS7003;43626;53.866;30.298;2022-11-04T01:48:58;47;34.6;21.4
57798;PMS7003;43626;53.866;30.298;2022-11-04T01:54:35;44;33.8;21
57798;PMS7003;43626;53.866;30.298;2022-11-04T01:59:45;38.8;32.3;18.3
57798;PMS7003;43626;53.866;30.298;2022-11-04T02:04:31;34.2;28.4;17
57798;PMS7003;43626;53.866;30.298;2022-11-04T02:09:43;37.2;30.8;19.6
57798;PMS7003;43626;53.866;30.298;2022-11-04T02:14:11;41.8;33.8;19.6
57798;PMS7003;43626;53.866;30.298;2022-11-04T02:19:49;43.4;34.2;19.2
57798;PMS7003;43626;53.866;30.298;2022-11-04T02:24:18;38.8;31;18
57798;PMS7003;43626;53.866;30.298;2022-11-04T02:29:46;30;25.4;16
57798;PMS7003;43626;53.866;30.298;2022-11-04T02:34:13;24.6;19;12
57798;PMS7003;43626;53.866;30.298;2022-11-04T02:39:06;22.6;17.6;11.6
57798;PMS7003;43626;53.866;30.298;2022-11-04T02:44:12;19.2;16.8;11.2
57798;PMS7003;43626;53.866;30.298;2022-11-04T02:49:47;18.4;14.8;9
57798;PMS7003;43626;53.866;30.298;2022-11-04T02:54:15;16.8;14.2;8.8
57798;PMS7003;43626;53.866;30.298;2022-11-04T02:59:46;15.3;13.3;8.3
57798;PMS7003;43626;53.866;30.298;2022-11-04T03:04:08;14.8;12.6;8
57798;PMS7003;43626;53.866;30.298;2022-11-04T03:09:42;17.4;14.4;8.6
57798;PMS7003;43626;53.866;30.298;2022-11-04T03:14:18;16.2;14.2;8.8
57798;PMS7003;43626;53.866;30.298;2022-11-04T03:19:31;17.2;13.4;7.8
57798;PMS7003;43626;53.866;30.298;2022-11-04T03:24:33;18.2;15.2;9.8
57798;PMS7003;43626;53.866;30.298;2022-11-04T03:29:00;17.4;14.8;9.2
57798;PMS7003;43626;53.866;30.298;2022-11-04T03:34:43;16.6;14.2;9
57798;PMS7003;43626;53.866;30.298;2022-11-04T03:39:23;14.6;12.2;7.6
57798;PMS7003;43626;53.866;30.298;2022-11-04T03:44:31;14.2;11.6;8
57798;PMS7003;43626;53.866;30.298;2022-11-04T03:49:21;13.4;12.2;7.8
57798;PMS7003;43626;53.866;30.298;2022-11-04T03:54:43;12.4;10.6;6.4
57798;PMS7003;43626;53.866;30.298;2022-11-04T03:59:23;12.8;10.8;7.5
57798;PMS7003;43626;53.866;30.298;2022-11-04T04:04:44;12.6;11;6.8
57798;PMS7003;43626;53.866;30.298;2022-11-04T04:09:30;14;9.8;6
57798;PMS7003;43626;53.866;30.298;2022-11-04T04:14:47;14.2;11.2;6.8
57798;PMS7003;43626;53.866;30.298;2022-11-04T04:18:58;16.4;12.8;8
57798;PMS7003;43626;53.866;30.298;2022-11-04T04:24:46;19;15.4;8.8
57798;PMS7003;43626;53.866;30.298;2022-11-04T04:29:08;17.8;15.4;9.4
57798;PMS7003;43626;53.866;30.298;2022-11-04T04:34:24;21.2;16;9.6
57798;PMS7003;43626;53.866;30.298;2022-11-04T04:39:36;18.4;15.6;10
57798;PMS7003;43626;53.866;30.298;2022-11-04T04:44:22;19.4;15.2;9.6
57798;PMS7003;43626;53.866;30.298;2022-11-04T04:49:49;16.4;15;8.8
57798;PMS7003;43626;53.866;30.298;2022-11-04T04:54:45;16.2;14;8.6
57798;PMS7003;43626;53.866;30.298;2022-11-04T04:59:27;15.8;11.5;6.5
57798;PMS7003;43626;53.866;30.298;2022-11-04T05:04:21;12.6;10.4;6.2
57798;PMS7003;43626;53.866;30.298;2022-11-04T05:09:07;14.2;12.4;7
57798;PMS7003;43626;53.866;30.298;2022-11-04T05:14:17;15.8;12.6;7.2
57798;PMS7003;43626;53.866;30.298;2022-11-04T05:19:43;21.8;14.4;8
57798;PMS7003;43626;53.866;30.298;2022-11-04T05:24:13;18.8;16;8.4
57798;PMS7003;43626;53.866;30.298;2022-11-04T05:29:45;18.2;16;8.2
57798;PMS7003;43626;53.866;30.298;2022-11-04T05:33:57;20.2;16.8;9.8
57798;PMS7003;43626;53.866;30.298;2022-11-04T05:39:13;19.6;15;8.6
57798;PMS7003;43626;53.866;30.298;2022-11-04T05:44:17;15.6;11.2;6.8
57798;PMS7003;43626;53.866;30.298;2022-11-04T05:49:29;11;9;5.6
57798;PMS7003;43626;53.866;30.298;2022-11-04T05:54:23;7.6;7;3.6
57798;PMS7003;43626;53.866;30.298;2022-11-04T05:58:57;5.3;4.5;2.5
57798;PMS7003;43626;53.866;30.298;2022-11-04T06:04:43;5;4.6;2.6
57798;PMS7003;43626;53.866;30.298;2022-11-04T06:09:45;3.4;2.2;1.2
57798;PMS7003;43626;53.866;30.298;2022-11-04T06:14:29;5;3.8;2.3
57798;PMS7003;43626;53.866;30.298;2022-11-04T06:18:57;7.8;6.6;4.2
57798;PMS7003;43626;53.866;30.298;2022-11-04T06:23:58;6.8;5.2;3.4
57798;PMS7003;43626;53.866;30.298;2022-11-04T06:29:19;7.2;5.6;3.8
57798;PMS7003;43626;53.866;30.298;2022-11-04T06:34:45;35.8;28.2;18
57798;PMS7003;43626;53.866;30.298;2022-11-04T06:39:13;43.4;34.4;22.6
57798;PMS7003;43626;53.866;30.298;2022-11-04T06:44:22;12.8;11;7.4
57798;PMS7003;43626;53.866;30.298;2022-11-04T06:48:57;12;10.8;7
57798;PMS7003;43626;53.866;30.298;2022-11-04T06:54:45;12.2;10;6.4
57798;PMS7003;43626;53.866;30.298;2022-11-04T06:59:19;9.8;9;6
57798;PMS7003;43626;53.866;30.298;2022-11-04T07:04:29;19.2;15.8;9.6
57798;PMS7003;43626;53.866;30.298;2022-11-04T07:09:36;17;15.2;9.2
57798;PMS7003;43626;53.866;30.298;2022-11-04T07:14:12;14;11.4;6.8
57798;PMS7003;43626;53.866;30.298;2022-11-04T07:19:45;12;10.6;6.8
57798;PMS7003;43626;53.866;30.298;2022-11-04T07:24:41;7.2;6.4;4.2
57798;PMS7003;43626;53.866;30.298;2022-11-04T07:29:27;15.4;14;8.8
57798;PMS7003;43626;53.866;30.298;2022-11-04T07:34:11;14.8;13.4;9.2
57798;PMS7003;43626;53.866;30.298;2022-11-04T07:39:07;10.2;9;5.6
57798;PMS7003;43626;53.866;30.298;2022-11-04T07:43:57;7;6.2;4.2
57798;PMS7003;43626;53.866;30.298;2022-11-04T07:49:43;9.8;7.2;4.4
57798;PMS7003;43626;53.866;30.298;2022-11-04T07:54:15;7.2;6.6;4.8
57798;PMS7003;43626;53.866;30.298;2022-11-04T07:59:45;10.4;9.2;5.6
57798;PMS7003;43626;53.866;30.298;2022-11-04T08:03:58;11;9.8;7
57798;PMS7003;43626;53.866;30.298;2022-11-04T08:09:41;11.4;9.2;6.2
57798;PMS7003;43626;53.866;30.298;2022-11-04T08:14:19;8.4;8.4;5.4
57798;PMS7003;43626;53.866;30.298;2022-11-04T08:19:29;11.2;9.2;6.4
57798;PMS7003;43626;53.866;30.298;2022-11-04T08:24:31;12.8;10.6;6.8
57798;PMS7003;43626;53.866;30.298;2022-11-04T08:28:57;19;16.2;10.8
57798;PMS7003;43626;53.866;30.298;2022-11-04T08:34:40;15.2;12;8
57798;PMS7003;43626;53.866;30.298;2022-11-04T08:39:43;8.2;6.4;4.6
57798;PMS7003;43626;53.866;30.298;2022-11-04T08:44:00;4.4;4.4;2.8
57798;PMS7003;43626;53.866;30.298;2022-11-04T08:49:36;5.8;4.6;2.6
57798;PMS7003;43626;53.866;30.298;2022-11-04T08:53:58;7.4;6.4;4
57798;PMS7003;43626;53.866;30.298;2022-11-04T08:59:06;8;6.8;4.4
57798;PMS7003;43626;53.866;30.298;2022-11-04T09:04:41;19.8;16.8;9
57798;PMS7003;43626;53.866;30.298;2022-11-04T09:09:16;5;4.2;2.8
57798;PMS7003;43626;53.866;30.298;2022-11-04T09:14:31;3.6;2.6;1.6
57798;PMS7003;43626;53.866;30.298;2022-11-04T09:18:58;2;2;1.2
57798;PMS7003;43626;53.866;30.298;2022-11-04T09:24:43;9.2;8;5.2
57798;PMS7003;43626;53.866;30.298;2022-11-04T09:29:17;8;7.8;5.2
57798;PMS7003;43626;53.866;30.298;2022-11-04T09:34:30;3.8;3.6;2.8
57798;PMS7003;43626;53.866;30.298;2022-11-04T09:39:34;5.2;4.6;2.6
57798;PMS7003;43626;53.866;30.298;2022-11-04T09:44:23;3.2;2.4;1.6
57798;PMS7003;43626;53.866;30.298;2022-11-04T09:49:42;4.6;3.8;2.2
57798;PMS7003;43626;53.866;30.298;2022-11-04T09:54:47;4.8;3.8;2
57798;PMS7003;43626;53.866;30.298;2022-11-04T09:59:26;5.8;5;4
57798;PMS7003;43626;53.866;30.298;2022-11-04T10:04:23;11.8;9;6.3
57798;PMS7003;43626;53.866;30.298;2022-11-04T10:09:01;8.8;7.4;5
57798;PMS7003;43626;53.866;30.298;2022-11-04T10:14:24;20;17.6;12
57798;PMS7003;43626;53.866;30.298;2022-11-04T10:19:49;29.2;24.6;17
57798;PMS7003;43626;53.866;30.298;2022-11-04T10:24:17;17;13;8.6
57798;PMS7003;43626;53.866;30.298;2022-11-04T10:29:42;18.8;16.8;11
57798;PMS7003;43626;53.866;30.298;2022-11-04T10:34:10;8.8;7;4.2
57798;PMS7003;43626;53.866;30.298;2022-11-04T10:39:46;10.4;8.4;5
57798;PMS7003;43626;53.866;30.298;2022-11-04T10:44:20;23.4;17.8;10.2
57798;PMS7003;43626;53.866;30.298;2022-11-04T10:49:37;23.8;19.6;10.2
57798;PMS7003;43626;53.866;30.298;2022-11-04T10:54:38;32.6;24.6;13.8
57798;PMS7003;43626;53.866;30.298;2022-11-04T10:58:58;13.4;12.4;7
57798;PMS7003;43626;53.866;30.298;2022-11-04T11:04:42;18.5;14.3;8
57798;PMS7003;43626;53.866;30.298;2022-11-04T11:09:34;16.8;14.6;8.2
57798;PMS7003;43626;53.866;30.298;2022-11-04T11:14:46;16;13.4;8
57798;PMS7003;43626;53.866;30.298;2022-11-04T11:19:22;10.8;8.8;5.4
57798;PMS7003;43626;53.866;30.298;2022-11-04T11:24:12;11.4;8.2;5
57798;PMS7003;43626;53.866;30.298;2022-11-04T11:29:09;6.6;5;3.4
57798;PMS7003;43626;53.866;30.298;2022-11-04T11:34:42;8.4;7.8;4.6
57798;PMS7003;43626;53.866;30.298;2022-11-04T11:39:04;17.4;14.4;8.4
57798;PMS7003;43626;53.866;30.298;2022-11-04T11:44:30;21.4;16.6;10.4
57798;PMS7003;43626;53.866;30.298;2022-11-04T11:49:11;8.6;7.6;4.8
57798;PMS7003;43626;53.866;30.298;2022-11-04T11:54:14;9;7.5;4.5
57798;PMS7003;43626;53.866;30.298;2022-11-04T11:59:22;8.8;8;4.6
57798;PMS7003;43626;53.866;30.298;2022-11-04T12:04:32;9.2;6.8;4.2
57798;PMS7003;43626;53.866;30.298;2022-11-04T12:09:35;10;8.4;4.6
57798;PMS7003;43626;53.866;30.298;2022-11-04T12:14:36;48.4;33;17
57798;PMS7003;43626;53.866;30.298;2022-11-04T12:19:21;47.4;33;16.4
57798;PMS7003;43626;53.866;30.298;2022-11-04T12:24:45;43.6;32.2;16.2
57798;PMS7003;43626;53.866;30.298;2022-11-04T12:29:47;17.6;15.4;7.8
57798;PMS7003;43626;53.866;30.298;2022-11-04T12:34:49;23.8;16.8;9.2
57798;PMS7003;43626;53.866;30.298;2022-11-04T12:39:18;18.2;14.2;8
57798;PMS7003;43626;53.866;30.298;2022-11-04T12:44:14;18.6;15.2;9.2
57798;PMS7003;43626;53.866;30.298;2022-11-04T12:49:44;10;9.4;6.2
57798;PMS7003;43626;53.866;30.298;2022-11-04T12:54:17;13.4;11.2;7.4
57798;PMS7003;43626;53.866;30.298;2022-11-04T12:59:31;10.5;9;5.8
57798;PMS7003;43626;53.866;30.298;2022-11-04T13:03:58;8.8;7.4;5.4
57798;PMS7003;43626;53.866;30.298;2022-11-04T13:09:09;15.8;13.2;8.4
57798;PMS7003;43626;53.866;30.298;2022-11-04T13:14:08;14.4;12.4;8.6
57798;PMS7003;43626;53.866;30.298;2022-11-04T13:19:31;29.6;23;13.2
57798;PMS7003;43626;53.866;30.298;2022-11-04T13:24:38;17.4;15;10.6
57798;PMS7003;43626;53.866;30.298;2022-11-04T13:28:58;30.6;23.4;14.2
57798;PMS7003;43626;53.866;30.298;2022-11-04T13:33:59;47.4;35.4;20.4
57798;PMS7003;43626;53.866;30.298;2022-11-04T13:39:47;21.6;16.8;10
57798;PMS7003;43626;53.866;30.298;2022-11-04T13:44:46;11;10;6.4
57798;PMS7003;43626;53.866;30.298;2022-11-04T13:48:59;10.2;8.8;6.6
57798;PMS7003;43626;53.866;30.298;2022-11-04T13:54:51;15.6;12.4;8.2
57798;PMS7003;43626;53.866;30.298;2022-11-04T13:59:17;9;8.5;6
57798;PMS7003;43626;53.866;30.298;2022-11-04T14:04:34;8.4;7.6;5.4
57798;PMS7003;43626;53.866;30.298;2022-11-04T14:09:33;11.2;9.2;6.2
57798;PMS7003;43626;53.866;30.298;2022-11-04T14:14:32;8.6;7.8;5.6
57798;PMS7003;43626;53.866;30.298;2022-11-04T14:19:47;13.2;12.2;7.8
57798;PMS7003;43626;53.866;30.298;2022-11-04T14:23:58;10.2;8.8;6.2
57798;PMS7003;43626;53.866;30.298;2022-11-04T14:29:08;11.4;10.2;7.2
57798;PMS7003;43626;53.866;30.298;2022-11-04T14:34:32;11;9.8;6.8
57798;PMS7003;43626;53.866;30.298;2022-11-04T14:39:34;9.6;9.2;6
57798;PMS7003;43626;53.866;30.298;2022-11-04T14:44:46;31;24.4;14.4
57798;PMS7003;43626;53.866;30.298;2022-11-04T14:49:23;23;19;11.8
57798;PMS7003;43626;53.866;30.298;2022-11-04T14:54:44;11.6;9.8;6.2
57798;PMS7003;43626;53.866;30.298;2022-11-04T14:59:44;11.2;8.8;5.8
57798;PMS7003;43626;53.866;30.298;2022-11-04T15:04:22;14.8;10.5;6.3
57798;PMS7003;43626;53.866;30.298;2022-11-04T15:08:58;13.6;11.2;7.6
57798;PMS7003;43626;53.866;30.298;2022-11-04T15:14:12;13.2;10.4;6.8
57798;PMS7003;43626;53.866;30.298;2022-11-04T15:19:45;11.8;10.4;7.4
57798;PMS7003;43626;53.866;30.298;2022-11-04T15:24:16;11.8;9.8;5.6
57798;PMS7003;43626;53.866;30.298;2022-11-04T15:29:30;16.2;14;9
57798;PMS7003;43626;53.866;30.298;2022-11-04T15:33:59;13.4;11;7.4
57798;PMS7003;43626;53.866;30.298;2022-11-04T15:39:30;12.4;10.6;7.6
57798;PMS7003;43626;53.866;30.298;2022-11-04T15:44:20;15;12;7
57798;PMS7003;43626;53.866;30.298;2022-11-04T15:49:30;8.8;7.8;5
57798;PMS7003;43626;53.866;30.298;2022-11-04T15:54:22;9.2;8.4;5.4
57798;PMS7003;43626;53.866;30.298;2022-11-04T15:59:48;6.4;6;4.4
57798;PMS7003;43626;53.866;30.298;2022-11-04T16:03:58;7.8;7;5
57798;PMS7003;43626;53.866;30.298;2022-11-04T16:09:19;56.8;48;29.8
57798;PMS7003;43626;53.866;30.298;2022-11-04T16:14:24;16;14.2;8
57798;PMS7003;43626;53.866;30.298;2022-11-04T16:19:45;14.4;12.8;9.4
57798;PMS7003;43626;53.866;30.298;2022-11-04T16:24:15;8.4;7.2;5.2
57798;PMS7003;43626;53.866;30.298;2022-11-04T16:29:08;9.6;8.2;6
57798;PMS7003;43626;53.866;30.298;2022-11-04T16:34:20;9.6;7.4;5.4
57798;PMS7003;43626;53.866;30.298;2022-11-04T16:39:48;11.4;9.8;6.4
57798;PMS7003;43626;53.866;30.298;2022-11-04T16:44:48;12.8;11.8;7.8
57798;PMS7003;43626;53.866;30.298;2022-11-04T16:49:46;21.8;18.4;12.2
57798;PMS7003;43626;53.866;30.298;2022-11-04T16:54:32;26;23.2;14.4
57798;PMS7003;43626;53.866;30.298;2022-11-04T16:59:36;25.8;22;14.4
57798;PMS7003;43626;53.866;30.298;2022-11-04T17:04:32;13.8;12;8.3
57798;PMS7003;43626;53.866;30.298;2022-11-04T17:09:17;8.2;6.6;4.6
57798;PMS7003;43626;53.866;30.298;2022-11-04T17:14:46;7.8;6.6;4.8
57798;PMS7003;43626;53.866;30.298;2022-11-04T17:18:58;9;8.2;6
57798;PMS7003;43626;53.866;30.298;2022-11-04T17:24:48;16.5;15.5;11.5
57798;PMS7003;43626;53.866;30.298;2022-11-04T17:28:58;10.8;10.4;7
57798;PMS7003;43626;53.866;30.298;2022-11-04T17:34:44;13.6;11.6;8.2
57798;PMS7003;43626;53.866;30.298;2022-11-04T17:38:56;16.4;14.6;10
57798;PMS7003;43626;53.866;30.298;2022-11-04T17:43:58;8.2;7.6;5
57798;PMS7003;43626;53.866;30.298;2022-11-04T17:48:58;7.2;6.4;4.6
57798;PMS7003;43626;53.866;30.298;2022-11-04T17:54:34;6;5.2;3
57798;PMS7003;43626;53.866;30.298;2022-11-04T17:59:48;5;3.4;2.4
57798;PMS7003;43626;53.866;30.298;2022-11-04T18:04:48;8;6.2;3.8
57798;PMS7003;43626;53.866;30.298;2022-11-04T18:09:08;8.4;7;4.8
57798;PMS7003;43626;53.866;30.298;2022-11-04T18:14:36;8.4;7.2;5.2
57798;PMS7003;43626;53.866;30.298;2022-11-04T18:19:18;8.8;7.2;5.2
57798;PMS7003;43626;53.866;30.298;2022-11-04T18:24:08;5.3;4.5;2.8
57798;PMS7003;43626;53.866;30.298;2022-11-04T18:29:46;6;5;3.2
57798;PMS7003;43626;53.866;30.298;2022-11-04T18:34:09;5.2;3.6;3
57798;PMS7003;43626;53.866;30.298;2022-11-04T18:39:30;6.4;4.8;3.2
57798;PMS7003;43626;53.866;30.298;2022-11-04T18:44:18;6.8;5;3.2
57798;PMS7003;43626;53.866;30.298;2022-11-04T18:49:48;5;4.4;2.8
57798;PMS7003;43626;53.866;30.298;2022-11-04T18:54:22;4.6;4.2;2.6
57798;PMS7003;43626;53.866;30.298;2022-11-04T18:59:08;3.6;3.4;2.4
57798;PMS7003;43626;53.866;30.298;2022-11-04T19:04:08;9;8.6;6.2
57798;PMS7003;43626;53.866;30.298;2022-11-04T19:09:44;16.6;14;10.2
57798;PMS7003;43626;53.866;30.298;2022-11-04T19:14:48;20.4;18;12.8
57798;PMS7003;43626;53.866;30.298;2022-11-04T19:19:42;27.4;23.4;15.4
57798;PMS7003;43626;53.866;30.298;2022-11-04T19:24:10;40.5;32.3;22.3
57798;PMS7003;43626;53.866;30.298;2022-11-04T19:29:36;18.4;16.8;11.4
57798;PMS7003;43626;53.866;30.298;2022-11-04T19:34:32;6.4;4.8;3.4
57798;PMS7003;43626;53.866;30.298;2022-11-04T19:39:32;13.8;12.2;9.2
57798;PMS7003;43626;53.866;30.298;2022-11-04T19:44:48;7.6;7.4;5.4
57798;PMS7003;43626;53.866;30.298;2022-11-04T19:49:08;11.4;10.4;8
57798;PMS7003;43626;53.866;30.298;2022-11-04T19:54:22;5.6;5.2;3.6
57798;PMS7003;43626;53.866;30.298;2022-11-04T19:58:58;11.6;10.4;7.6
57798;PMS7003;43626;53.866;30.298;2022-11-04T20:04:44;17.6;15.4;11
57798;PMS7003;43626;53.866;30.298;2022-11-04T20:09:22;37.2;31;19.4
57798;PMS7003;43626;53.866;30.298;2022-11-04T20:13:58;7.4;6.6;4
57798;PMS7003;43626;53.866;30.298;2022-11-04T20:19:10;7;6.2;4.2
57798;PMS7003;43626;53.866;30.298;2022-11-04T20:24:34;3.8;3.8;2.3
57798;PMS7003;43626;53.866;30.298;2022-11-04T20:29:18;6;5;3.4
57798;PMS7003;43626;53.866;30.298;2022-11-04T20:34:48;4.8;4;2.6
57798;PMS7003;43626;53.866;30.298;2022-11-04T20:39:18;5.4;4.6;3
57798;PMS7003;43626;53.866;30.298;2022-11-04T20:44:36;5;4.2;2.6
57798;PMS7003;43626;53.866;30.298;2022-11-04T20:49:00;6;4.6;2.8
57798;PMS7003;43626;53.866;30.298;2022-11-04T20:54:34;7.2;6;3.8
57798;PMS7003;43626;53.866;30.298;2022-11-04T20:59:48;8.2;6.4;4.4
57798;PMS7003;43626;53.866;30.298;2022-11-04T21:03:59;10.8;9.8;6.8
57798;PMS7003;43626;53.866;30.298;2022-11-04T21:09:48;11;9;6.2
57798;PMS7003;43626;53.866;30.298;2022-11-04T21:14:18;9.4;7;4.6
57798;PMS7003;43626;53.866;30.298;2022-11-04T21:19:32;11.2;10;7
57798;PMS7003;43626;53.866;30.298;2022-11-04T21:24:20;15.3;12.8;8.8
57798;PMS7003;43626;53.866;30.298;2022-11-04T21:28:59;12;10.2;6.8
57798;PMS7003;43626;53.866;30.298;2022-11-04T21:34:20;4.6;3.6;2.4
57798;PMS7003;43626;53.866;30.298;2022-11-04T21:39:30;8;7;4.8
57798;PMS7003;43626;53.866;30.298;2022-11-04T21:44:16;9;7.8;4.8
57798;PMS7003;43626;53.866;30.298;2022-11-04T21:49:44;4.4;3.6;2.2
57798;PMS7003;43626;53.866;30.298;2022-11-04T21:53:58;4.6;4;2.4
57798;PMS7003;43626;53.866;30.298;2022-11-04T21:59:30;3;2;1.2
57798;PMS7003;43626;53.866;30.298;2022-11-04T22:04:28;7.2;6.8;4.4
57798;PMS7003;43626;53.866;30.298;2022-11-04T22:09:30;2.8;2.2;1.4
57798;PMS7003;43626;53.866;30.298;2022-11-04T22:14:44;3.4;2.6;1.6
57798;PMS7003;43626;53.866;30.298;2022-11-04T22:18:59;9;8.2;6
57798;PMS7003;43626;53.866;30.298;2022-11-04T22:24:32;26.6;23.4;16.4
57798;PMS7003;43626;53.866;30.298;2022-11-04T22:29:12;8;6.8;4.3
57798;PMS7003;43626;53.866;30.298;2022-11-04T22:34:32;2.2;1.8;0.8
57798;PMS7003;43626;53.866;30.298;2022-11-04T22:39:32;2.2;2;1
57798;PMS7003;43626;53.866;30.298;2022-11-04T22:44:06;2.4;1.8;1
57798;PMS7003;43626;53.866;30.298;2022-11-04T22:49:20;2;1.8;1.4
57798;PMS7003;43626;53.866;30.298;2022-11-04T22:54:30;2.2;1.6;1
57798;PMS7003;43626;53.866;30.298;2022-11-04T22:59:14;3.6;2.4;1.4
57798;PMS7003;43626;53.866;30.298;2022-11-04T23:04:44;3.8;3.2;2.2
57798;PMS7003;43626;53.866;30.298;2022-11-04T23:09:02;3.8;2;1.2
57798;PMS7003;43626;53.866;30.298;2022-11-04T23:14:32;9.8;9;6.4
57798;PMS7003;43626;53.866;30.298;2022-11-04T23:19:26;31;27;18.6
57798;PMS7003;43626;53.866;30.298;2022-11-04T23:24:28;2.8;2.4;1.6
57798;PMS7003;43626;53.866;30.298;2022-11-04T23:29:44;1.5;1.5;1
57798;PMS7003;43626;53.866;30.298;2022-11-04T23:34:04;1;1;0.8
57798;PMS7003;43626;53.866;30.298;2022-11-04T23:39:40;2.4;1.8;1.2
57798;PMS7003;43626;53.866;30.298;2022-11-04T23:44:12;2.6;1.6;1.2
57798;PMS7003;43626;53.866;30.298;2022-11-04T23:49:28;2.4;1.6;1
57798;PMS7003;43626;53.866;30.298;2022-11-04T23:54:30;2.8;2.4;1.6
57798;PMS7003;43626;53.866;30.298;2022-11-04T23:58:58;1.8;1.6;1
